sensor_id;sensor_type;location;lat;lon;timestamp;P1;durP1;ratioP1;P2;durP2;ratioP2
12120;SDS011;6124;59.460;17.908;2023-02-01T00:01:04;10.47;;;4.10;;
12120;SDS011;6124;59.460;17.908;2023-02-01T00:03:32;9.63;;;4.33;;
12120;SDS011;6124;59.460;17.908;2023-02-01T00:06:01;8.17;;;4.00;;
12120;SDS011;6124;59.460;17.908;2023-02-01T00:08:28;9.07;;;4.20;;
12120;SDS011;6124;59.460;17.908;2023-02-01T00:10:59;8.43;;;3.67;;
12120;SDS011;6124;59.460;17.908;2023-02-01T00:13:29;11.17;;;3.80;;
12120;SDS011;6124;59.460;17.908;2023-02-01T00:16:02;9.93;;;3.70;;
12120;SDS011;6124;59.460;17.908;2023-02-01T00:18:29;8.13;;;4.87;;
12120;SDS011;6124;59.460;17.908;2023-02-01T00:20:57;9.80;;;4.30;;
12120;SDS011;6124;59.460;17.908;2023-02-01T00:23:25;15.33;;;7.20;;
12120;SDS011;6124;59.460;17.908;2023-02-01T00:25:53;8.97;;;4.37;;
12120;SDS011;6124;59.460;17.908;2023-02-01T00:28:20;8.07;;;4.00;;
12120;SDS011;6124;59.460;17.908;2023-02-01T00:30:55;9.27;;;3.60;;
12120;SDS011;6124;59.460;17.908;2023-02-01T00:33:22;9.80;;;4.57;;
12120;SDS011;6124;59.460;17.908;2023-02-01T00:35:50;10.97;;;4.13;;
12120;SDS011;6124;59.460;17.908;2023-02-01T00:38:17;8.70;;;4.17;;
12120;SDS011;6124;59.460;17.908;2023-02-01T00:40:46;9.37;;;3.87;;
12120;SDS011;6124;59.460;17.908;2023-02-01T00:43:13;8.80;;;3.40;;
12120;SDS011;6124;59.460;17.908;2023-02-01T00:45:40;12.63;;;4.00;;
12120;SDS011;6124;59.460;17.908;2023-02-01T00:48:08;12.73;;;3.70;;
12120;SDS011;6124;59.460;17.908;2023-02-01T00:50:35;11.33;;;4.30;;
12120;SDS011;6124;59.460;17.908;2023-02-01T00:53:02;8.50;;;4.10;;
12120;SDS011;6124;59.460;17.908;2023-02-01T00:55:30;12.93;;;4.40;;
12120;SDS011;6124;59.460;17.908;2023-02-01T00:57:58;10.07;;;4.03;;
12120;SDS011;6124;59.460;17.908;2023-02-01T01:00:26;7.57;;;3.53;;
12120;SDS011;6124;59.460;17.908;2023-02-01T01:02:53;7.87;;;3.90;;
12120;SDS011;6124;59.460;17.908;2023-02-01T01:05:21;7.53;;;3.17;;
12120;SDS011;6124;59.460;17.908;2023-02-01T01:07:48;12.13;;;3.87;;
12120;SDS011;6124;59.460;17.908;2023-02-01T01:10:16;8.13;;;3.40;;
12120;SDS011;6124;59.460;17.908;2023-02-01T01:12:43;11.43;;;3.50;;
12120;SDS011;6124;59.460;17.908;2023-02-01T01:15:12;10.57;;;3.80;;
12120;SDS011;6124;59.460;17.908;2023-02-01T01:17:39;6.67;;;3.57;;
12120;SDS011;6124;59.460;17.908;2023-02-01T01:20:07;8.67;;;3.80;;
12120;SDS011;6124;59.460;17.908;2023-02-01T01:22:35;9.00;;;3.30;;
12120;SDS011;6124;59.460;17.908;2023-02-01T01:25:02;7.83;;;3.77;;
12120;SDS011;6124;59.460;17.908;2023-02-01T01:27:29;7.80;;;3.90;;
12120;SDS011;6124;59.460;17.908;2023-02-01T01:29:57;7.57;;;3.40;;
12120;SDS011;6124;59.460;17.908;2023-02-01T01:32:25;8.37;;;3.37;;
12120;SDS011;6124;59.460;17.908;2023-02-01T01:34:53;6.50;;;3.47;;
12120;SDS011;6124;59.460;17.908;2023-02-01T01:37:20;7.97;;;3.23;;
12120;SDS011;6124;59.460;17.908;2023-02-01T01:39:47;5.83;;;3.27;;
12120;SDS011;6124;59.460;17.908;2023-02-01T01:42:15;8.77;;;3.23;;
12120;SDS011;6124;59.460;17.908;2023-02-01T01:44:56;7.97;;;3.47;;
12120;SDS011;6124;59.460;17.908;2023-02-01T01:47:24;8.63;;;3.40;;
12120;SDS011;6124;59.460;17.908;2023-02-01T01:49:54;5.10;;;3.07;;
12120;SDS011;6124;59.460;17.908;2023-02-01T01:52:22;4.87;;;3.03;;
12120;SDS011;6124;59.460;17.908;2023-02-01T01:54:51;10.00;;;3.80;;
12120;SDS011;6124;59.460;17.908;2023-02-01T01:57:19;8.27;;;3.87;;
12120;SDS011;6124;59.460;17.908;2023-02-01T01:59:50;10.20;;;3.60;;
12120;SDS011;6124;59.460;17.908;2023-02-01T02:02:20;9.80;;;3.77;;
12120;SDS011;6124;59.460;17.908;2023-02-01T02:04:47;6.33;;;3.10;;
12120;SDS011;6124;59.460;17.908;2023-02-01T02:07:17;10.83;;;3.70;;
12120;SDS011;6124;59.460;17.908;2023-02-01T02:09:47;6.90;;;3.27;;
12120;SDS011;6124;59.460;17.908;2023-02-01T02:12:14;6.10;;;3.23;;
12120;SDS011;6124;59.460;17.908;2023-02-01T02:14:41;9.13;;;3.47;;
12120;SDS011;6124;59.460;17.908;2023-02-01T02:17:18;6.60;;;3.67;;
12120;SDS011;6124;59.460;17.908;2023-02-01T02:20:02;7.63;;;3.43;;
12120;SDS011;6124;59.460;17.908;2023-02-01T02:22:42;7.67;;;3.43;;
12120;SDS011;6124;59.460;17.908;2023-02-01T02:25:18;9.00;;;3.47;;
12120;SDS011;6124;59.460;17.908;2023-02-01T02:27:47;9.53;;;3.57;;
12120;SDS011;6124;59.460;17.908;2023-02-01T02:35:48;11.20;;;3.90;;
12120;SDS011;6124;59.460;17.908;2023-02-01T02:38:22;9.23;;;3.70;;
12120;SDS011;6124;59.460;17.908;2023-02-01T02:40:55;8.73;;;3.80;;
12120;SDS011;6124;59.460;17.908;2023-02-01T02:43:27;8.90;;;3.47;;
12120;SDS011;6124;59.460;17.908;2023-02-01T02:46:17;8.83;;;3.50;;
12120;SDS011;6124;59.460;17.908;2023-02-01T02:49:08;5.70;;;3.23;;
12120;SDS011;6124;59.460;17.908;2023-02-01T02:51:40;8.60;;;3.27;;
12120;SDS011;6124;59.460;17.908;2023-02-01T02:54:27;7.63;;;3.10;;
12120;SDS011;6124;59.460;17.908;2023-02-01T02:57:17;7.00;;;3.20;;
12120;SDS011;6124;59.460;17.908;2023-02-01T03:00:04;7.53;;;3.17;;
12120;SDS011;6124;59.460;17.908;2023-02-01T03:02:50;7.17;;;2.90;;
12120;SDS011;6124;59.460;17.908;2023-02-01T03:05:35;7.10;;;3.47;;
12120;SDS011;6124;59.460;17.908;2023-02-01T03:08:09;9.03;;;3.37;;
12120;SDS011;6124;59.460;17.908;2023-02-01T03:10:53;7.27;;;3.13;;
12120;SDS011;6124;59.460;17.908;2023-02-01T03:13:26;9.03;;;3.20;;
12120;SDS011;6124;59.460;17.908;2023-02-01T03:15:55;9.40;;;3.90;;
12120;SDS011;6124;59.460;17.908;2023-02-01T03:18:25;11.53;;;3.40;;
12120;SDS011;6124;59.460;17.908;2023-02-01T03:20:53;8.47;;;3.43;;
12120;SDS011;6124;59.460;17.908;2023-02-01T03:23:25;7.27;;;3.00;;
12120;SDS011;6124;59.460;17.908;2023-02-01T03:25:54;7.00;;;3.33;;
12120;SDS011;6124;59.460;17.908;2023-02-01T03:28:23;6.67;;;2.97;;
12120;SDS011;6124;59.460;17.908;2023-02-01T03:30:53;7.90;;;3.50;;
12120;SDS011;6124;59.460;17.908;2023-02-01T03:33:21;9.57;;;3.40;;
12120;SDS011;6124;59.460;17.908;2023-02-01T03:35:54;9.47;;;3.83;;
12120;SDS011;6124;59.460;17.908;2023-02-01T03:38:23;7.73;;;3.83;;
12120;SDS011;6124;59.460;17.908;2023-02-01T03:40:53;10.67;;;4.07;;
12120;SDS011;6124;59.460;17.908;2023-02-01T03:43:22;8.50;;;3.77;;
12120;SDS011;6124;59.460;17.908;2023-02-01T03:45:52;7.60;;;3.53;;
12120;SDS011;6124;59.460;17.908;2023-02-01T03:48:21;6.37;;;3.37;;
12120;SDS011;6124;59.460;17.908;2023-02-01T03:50:50;7.57;;;3.77;;
12120;SDS011;6124;59.460;17.908;2023-02-01T03:53:19;7.33;;;4.13;;
12120;SDS011;6124;59.460;17.908;2023-02-01T03:55:47;9.03;;;3.63;;
12120;SDS011;6124;59.460;17.908;2023-02-01T03:58:16;7.30;;;3.33;;
12120;SDS011;6124;59.460;17.908;2023-02-01T04:00:45;7.83;;;3.73;;
12120;SDS011;6124;59.460;17.908;2023-02-01T04:03:13;8.23;;;3.37;;
12120;SDS011;6124;59.460;17.908;2023-02-01T04:05:40;6.87;;;3.60;;
12120;SDS011;6124;59.460;17.908;2023-02-01T04:08:07;9.00;;;3.37;;
12120;SDS011;6124;59.460;17.908;2023-02-01T04:10:35;7.07;;;3.10;;
12120;SDS011;6124;59.460;17.908;2023-02-01T04:13:02;7.83;;;3.10;;
12120;SDS011;6124;59.460;17.908;2023-02-01T04:15:31;6.77;;;3.33;;
12120;SDS011;6124;59.460;17.908;2023-02-01T04:17:59;7.23;;;2.97;;
12120;SDS011;6124;59.460;17.908;2023-02-01T04:20:27;5.10;;;2.63;;
12120;SDS011;6124;59.460;17.908;2023-02-01T04:22:54;6.33;;;3.03;;
12120;SDS011;6124;59.460;17.908;2023-02-01T04:25:22;8.63;;;3.10;;
12120;SDS011;6124;59.460;17.908;2023-02-01T04:27:49;7.43;;;2.93;;
12120;SDS011;6124;59.460;17.908;2023-02-01T04:30:16;6.47;;;2.80;;
12120;SDS011;6124;59.460;17.908;2023-02-01T04:32:45;7.90;;;3.70;;
12120;SDS011;6124;59.460;17.908;2023-02-01T04:35:13;5.53;;;3.03;;
12120;SDS011;6124;59.460;17.908;2023-02-01T04:37:40;6.60;;;3.13;;
12120;SDS011;6124;59.460;17.908;2023-02-01T04:40:08;6.70;;;3.00;;
12120;SDS011;6124;59.460;17.908;2023-02-01T04:42:35;6.60;;;3.30;;
12120;SDS011;6124;59.460;17.908;2023-02-01T04:45:03;8.80;;;3.87;;
12120;SDS011;6124;59.460;17.908;2023-02-01T04:47:30;8.83;;;3.43;;
12120;SDS011;6124;59.460;17.908;2023-02-01T04:49:59;8.53;;;3.50;;
12120;SDS011;6124;59.460;17.908;2023-02-01T04:52:27;6.70;;;3.57;;
12120;SDS011;6124;59.460;17.908;2023-02-01T04:54:54;6.97;;;2.97;;
12120;SDS011;6124;59.460;17.908;2023-02-01T04:57:22;8.77;;;4.00;;
12120;SDS011;6124;59.460;17.908;2023-02-01T04:59:50;5.70;;;3.50;;
12120;SDS011;6124;59.460;17.908;2023-02-01T05:02:17;7.80;;;3.37;;
12120;SDS011;6124;59.460;17.908;2023-02-01T05:04:44;7.93;;;3.43;;
12120;SDS011;6124;59.460;17.908;2023-02-01T05:07:13;6.17;;;2.93;;
12120;SDS011;6124;59.460;17.908;2023-02-01T05:09:40;6.80;;;2.97;;
12120;SDS011;6124;59.460;17.908;2023-02-01T05:12:08;6.03;;;3.07;;
12120;SDS011;6124;59.460;17.908;2023-02-01T05:14:53;5.13;;;2.83;;
12120;SDS011;6124;59.460;17.908;2023-02-01T05:17:21;5.83;;;2.80;;
12120;SDS011;6124;59.460;17.908;2023-02-01T05:19:48;5.43;;;2.67;;
12120;SDS011;6124;59.460;17.908;2023-02-01T05:22:17;6.30;;;3.10;;
12120;SDS011;6124;59.460;17.908;2023-02-01T05:24:44;6.97;;;3.33;;
12120;SDS011;6124;59.460;17.908;2023-02-01T05:27:12;7.17;;;3.33;;
12120;SDS011;6124;59.460;17.908;2023-02-01T05:29:39;5.27;;;3.07;;
12120;SDS011;6124;59.460;17.908;2023-02-01T05:32:08;6.07;;;3.30;;
12120;SDS011;6124;59.460;17.908;2023-02-01T05:34:36;7.93;;;3.23;;
12120;SDS011;6124;59.460;17.908;2023-02-01T05:37:03;7.00;;;3.37;;
12120;SDS011;6124;59.460;17.908;2023-02-01T05:39:32;4.83;;;3.07;;
12120;SDS011;6124;59.460;17.908;2023-02-01T05:41:59;6.87;;;3.37;;
12120;SDS011;6124;59.460;17.908;2023-02-01T05:44:27;7.17;;;2.93;;
12120;SDS011;6124;59.460;17.908;2023-02-01T05:46:54;5.13;;;3.20;;
12120;SDS011;6124;59.460;17.908;2023-02-01T05:49:21;8.10;;;3.30;;
12120;SDS011;6124;59.460;17.908;2023-02-01T05:51:49;8.10;;;3.17;;
12120;SDS011;6124;59.460;17.908;2023-02-01T05:54:16;7.63;;;3.27;;
12120;SDS011;6124;59.460;17.908;2023-02-01T05:56:45;6.67;;;3.23;;
12120;SDS011;6124;59.460;17.908;2023-02-01T05:59:12;9.67;;;3.10;;
12120;SDS011;6124;59.460;17.908;2023-02-01T06:01:40;5.37;;;2.70;;
12120;SDS011;6124;59.460;17.908;2023-02-01T06:04:07;5.23;;;2.53;;
12120;SDS011;6124;59.460;17.908;2023-02-01T06:06:34;6.57;;;3.07;;
12120;SDS011;6124;59.460;17.908;2023-02-01T06:09:02;4.27;;;2.73;;
12120;SDS011;6124;59.460;17.908;2023-02-01T06:11:30;4.53;;;2.53;;
12120;SDS011;6124;59.460;17.908;2023-02-01T06:13:59;6.40;;;3.50;;
12120;SDS011;6124;59.460;17.908;2023-02-01T06:16:26;9.33;;;3.27;;
12120;SDS011;6124;59.460;17.908;2023-02-01T06:18:53;7.07;;;3.03;;
12120;SDS011;6124;59.460;17.908;2023-02-01T06:21:21;7.30;;;2.70;;
12120;SDS011;6124;59.460;17.908;2023-02-01T06:23:49;6.23;;;2.70;;
12120;SDS011;6124;59.460;17.908;2023-02-01T06:26:17;7.07;;;3.50;;
12120;SDS011;6124;59.460;17.908;2023-02-01T06:28:44;9.20;;;3.03;;
12120;SDS011;6124;59.460;17.908;2023-02-01T06:31:13;5.80;;;2.83;;
12120;SDS011;6124;59.460;17.908;2023-02-01T06:33:40;5.40;;;2.97;;
12120;SDS011;6124;59.460;17.908;2023-02-01T06:36:09;5.27;;;3.00;;
12120;SDS011;6124;59.460;17.908;2023-02-01T06:38:37;6.37;;;3.20;;
12120;SDS011;6124;59.460;17.908;2023-02-01T06:41:05;5.30;;;2.83;;
12120;SDS011;6124;59.460;17.908;2023-02-01T06:43:32;6.13;;;3.30;;
12120;SDS011;6124;59.460;17.908;2023-02-01T06:46:00;7.63;;;3.40;;
12120;SDS011;6124;59.460;17.908;2023-02-01T06:48:30;5.30;;;3.27;;
12120;SDS011;6124;59.460;17.908;2023-02-01T06:50:58;8.47;;;2.97;;
12120;SDS011;6124;59.460;17.908;2023-02-01T06:53:26;6.83;;;3.37;;
12120;SDS011;6124;59.460;17.908;2023-02-01T06:55:54;8.07;;;3.23;;
12120;SDS011;6124;59.460;17.908;2023-02-01T06:58:22;7.47;;;3.07;;
12120;SDS011;6124;59.460;17.908;2023-02-01T07:00:49;6.90;;;3.50;;
12120;SDS011;6124;59.460;17.908;2023-02-01T07:03:19;8.27;;;3.33;;
12120;SDS011;6124;59.460;17.908;2023-02-01T07:05:47;5.73;;;3.00;;
12120;SDS011;6124;59.460;17.908;2023-02-01T07:08:15;5.83;;;3.20;;
12120;SDS011;6124;59.460;17.908;2023-02-01T07:10:42;5.93;;;3.00;;
12120;SDS011;6124;59.460;17.908;2023-02-01T07:13:09;6.87;;;2.90;;
12120;SDS011;6124;59.460;17.908;2023-02-01T07:15:37;6.13;;;2.80;;
12120;SDS011;6124;59.460;17.908;2023-02-01T07:18:04;7.83;;;3.17;;
12120;SDS011;6124;59.460;17.908;2023-02-01T07:20:31;6.33;;;3.20;;
12120;SDS011;6124;59.460;17.908;2023-02-01T07:23:00;8.77;;;3.10;;
12120;SDS011;6124;59.460;17.908;2023-02-01T07:25:28;8.53;;;3.23;;
12120;SDS011;6124;59.460;17.908;2023-02-01T07:27:55;8.00;;;3.10;;
12120;SDS011;6124;59.460;17.908;2023-02-01T07:30:22;7.27;;;2.90;;
12120;SDS011;6124;59.460;17.908;2023-02-01T07:32:51;6.37;;;2.87;;
12120;SDS011;6124;59.460;17.908;2023-02-01T07:35:18;5.80;;;3.00;;
12120;SDS011;6124;59.460;17.908;2023-02-01T07:37:45;8.80;;;3.10;;
12120;SDS011;6124;59.460;17.908;2023-02-01T07:40:14;8.20;;;2.80;;
12120;SDS011;6124;59.460;17.908;2023-02-01T07:42:43;5.03;;;2.90;;
12120;SDS011;6124;59.460;17.908;2023-02-01T07:45:10;7.07;;;2.90;;
12120;SDS011;6124;59.460;17.908;2023-02-01T07:47:39;7.73;;;3.20;;
12120;SDS011;6124;59.460;17.908;2023-02-01T07:50:06;8.20;;;3.10;;
12120;SDS011;6124;59.460;17.908;2023-02-01T07:52:34;5.97;;;2.70;;
12120;SDS011;6124;59.460;17.908;2023-02-01T07:55:01;5.63;;;2.80;;
12120;SDS011;6124;59.460;17.908;2023-02-01T07:57:30;5.73;;;3.13;;
12120;SDS011;6124;59.460;17.908;2023-02-01T07:59:57;5.03;;;3.17;;
12120;SDS011;6124;59.460;17.908;2023-02-01T08:02:42;6.70;;;3.10;;
12120;SDS011;6124;59.460;17.908;2023-02-01T08:05:09;4.70;;;2.80;;
12120;SDS011;6124;59.460;17.908;2023-02-01T08:07:37;8.20;;;3.10;;
12120;SDS011;6124;59.460;17.908;2023-02-01T08:10:04;4.90;;;2.60;;
12120;SDS011;6124;59.460;17.908;2023-02-01T08:12:37;5.53;;;3.30;;
12120;SDS011;6124;59.460;17.908;2023-02-01T08:15:05;10.63;;;4.73;;
12120;SDS011;6124;59.460;17.908;2023-02-01T08:17:33;9.00;;;6.10;;
12120;SDS011;6124;59.460;17.908;2023-02-01T08:20:00;7.93;;;5.50;;
12120;SDS011;6124;59.460;17.908;2023-02-01T08:22:31;9.50;;;5.33;;
12120;SDS011;6124;59.460;17.908;2023-02-01T08:24:58;10.57;;;4.60;;
12120;SDS011;6124;59.460;17.908;2023-02-01T08:27:26;7.73;;;4.03;;
12120;SDS011;6124;59.460;17.908;2023-02-01T08:29:55;5.93;;;3.47;;
12120;SDS011;6124;59.460;17.908;2023-02-01T08:32:22;6.17;;;3.23;;
12120;SDS011;6124;59.460;17.908;2023-02-01T08:34:49;7.50;;;3.57;;
12120;SDS011;6124;59.460;17.908;2023-02-01T08:37:17;4.90;;;3.00;;
12120;SDS011;6124;59.460;17.908;2023-02-01T08:39:44;11.47;;;3.67;;
12120;SDS011;6124;59.460;17.908;2023-02-01T08:42:15;7.20;;;3.20;;
12120;SDS011;6124;59.460;17.908;2023-02-01T08:45:01;8.03;;;3.80;;
12120;SDS011;6124;59.460;17.908;2023-02-01T08:47:29;8.10;;;3.17;;
12120;SDS011;6124;59.460;17.908;2023-02-01T08:49:57;10.17;;;3.53;;
12120;SDS011;6124;59.460;17.908;2023-02-01T08:52:24;7.20;;;3.07;;
12120;SDS011;6124;59.460;17.908;2023-02-01T08:54:51;7.07;;;3.17;;
12120;SDS011;6124;59.460;17.908;2023-02-01T08:57:19;4.87;;;2.90;;
12120;SDS011;6124;59.460;17.908;2023-02-01T08:59:46;7.80;;;3.50;;
12120;SDS011;6124;59.460;17.908;2023-02-01T09:02:15;7.17;;;2.70;;
12120;SDS011;6124;59.460;17.908;2023-02-01T09:04:42;4.50;;;3.20;;
12120;SDS011;6124;59.460;17.908;2023-02-01T09:07:10;6.77;;;3.17;;
12120;SDS011;6124;59.460;17.908;2023-02-01T09:09:38;6.83;;;3.30;;
12120;SDS011;6124;59.460;17.908;2023-02-01T09:12:05;4.83;;;2.87;;
12120;SDS011;6124;59.460;17.908;2023-02-01T09:14:33;9.47;;;3.33;;
12120;SDS011;6124;59.460;17.908;2023-02-01T09:17:00;7.23;;;3.37;;
12120;SDS011;6124;59.460;17.908;2023-02-01T09:19:29;10.93;;;3.77;;
12120;SDS011;6124;59.460;17.908;2023-02-01T09:21:56;6.63;;;2.93;;
12120;SDS011;6124;59.460;17.908;2023-02-01T09:24:24;8.67;;;3.40;;
12120;SDS011;6124;59.460;17.908;2023-02-01T09:26:51;8.90;;;3.50;;
12120;SDS011;6124;59.460;17.908;2023-02-01T09:29:18;9.20;;;4.10;;
12120;SDS011;6124;59.460;17.908;2023-02-01T09:31:46;7.00;;;3.60;;
12120;SDS011;6124;59.460;17.908;2023-02-01T09:34:13;6.40;;;3.20;;
12120;SDS011;6124;59.460;17.908;2023-02-01T09:36:42;6.97;;;3.40;;
12120;SDS011;6124;59.460;17.908;2023-02-01T09:39:09;6.17;;;3.23;;
12120;SDS011;6124;59.460;17.908;2023-02-01T09:41:39;12.47;;;4.00;;
12120;SDS011;6124;59.460;17.908;2023-02-01T09:44:14;9.40;;;3.70;;
12120;SDS011;6124;59.460;17.908;2023-02-01T09:46:42;10.90;;;3.90;;
12120;SDS011;6124;59.460;17.908;2023-02-01T09:49:11;13.07;;;3.73;;
12120;SDS011;6124;59.460;17.908;2023-02-01T09:51:40;9.43;;;4.87;;
12120;SDS011;6124;59.460;17.908;2023-02-01T09:54:11;13.27;;;4.17;;
12120;SDS011;6124;59.460;17.908;2023-02-01T09:56:41;6.93;;;3.60;;
12120;SDS011;6124;59.460;17.908;2023-02-01T09:59:12;10.67;;;3.93;;
12120;SDS011;6124;59.460;17.908;2023-02-01T10:01:47;6.40;;;3.67;;
12120;SDS011;6124;59.460;17.908;2023-02-01T10:04:14;12.70;;;4.20;;
12120;SDS011;6124;59.460;17.908;2023-02-01T10:06:56;8.10;;;4.53;;
12120;SDS011;6124;59.460;17.908;2023-02-01T10:09:38;10.47;;;4.47;;
12120;SDS011;6124;59.460;17.908;2023-02-01T10:12:21;11.23;;;4.87;;
12120;SDS011;6124;59.460;17.908;2023-02-01T10:14:55;9.17;;;4.97;;
12120;SDS011;6124;59.460;17.908;2023-02-01T10:17:29;8.40;;;4.83;;
12120;SDS011;6124;59.460;17.908;2023-02-01T10:20:02;9.17;;;4.20;;
12120;SDS011;6124;59.460;17.908;2023-02-01T10:22:35;11.07;;;4.93;;
12120;SDS011;6124;59.460;17.908;2023-02-01T10:25:07;9.30;;;4.57;;
12120;SDS011;6124;59.460;17.908;2023-02-01T10:27:35;11.30;;;4.27;;
12120;SDS011;6124;59.460;17.908;2023-02-01T10:30:06;8.70;;;4.17;;
12120;SDS011;6124;59.460;17.908;2023-02-01T10:32:40;9.50;;;3.83;;
12120;SDS011;6124;59.460;17.908;2023-02-01T10:35:09;8.97;;;3.33;;
12120;SDS011;6124;59.460;17.908;2023-02-01T10:37:39;6.30;;;2.90;;
12120;SDS011;6124;59.460;17.908;2023-02-01T10:40:12;6.50;;;2.90;;
12120;SDS011;6124;59.460;17.908;2023-02-01T10:42:42;9.80;;;3.30;;
12120;SDS011;6124;59.460;17.908;2023-02-01T10:45:12;6.80;;;3.17;;
12120;SDS011;6124;59.460;17.908;2023-02-01T10:47:40;10.83;;;3.53;;
12120;SDS011;6124;59.460;17.908;2023-02-01T10:50:14;8.83;;;3.20;;
12120;SDS011;6124;59.460;17.908;2023-02-01T10:52:43;8.67;;;3.30;;
12120;SDS011;6124;59.460;17.908;2023-02-01T10:57:59;11.27;;;3.50;;
12120;SDS011;6124;59.460;17.908;2023-02-01T11:00:27;9.67;;;3.63;;
12120;SDS011;6124;59.460;17.908;2023-02-01T11:02:55;9.57;;;3.73;;
12120;SDS011;6124;59.460;17.908;2023-02-01T11:05:23;18.27;;;8.43;;
12120;SDS011;6124;59.460;17.908;2023-02-01T11:07:52;14.83;;;8.40;;
12120;SDS011;6124;59.460;17.908;2023-02-01T11:10:37;17.13;;;8.67;;
12120;SDS011;6124;59.460;17.908;2023-02-01T11:13:08;20.10;;;11.63;;
12120;SDS011;6124;59.460;17.908;2023-02-01T11:15:38;26.57;;;18.80;;
12120;SDS011;6124;59.460;17.908;2023-02-01T11:18:14;16.63;;;10.37;;
12120;SDS011;6124;59.460;17.908;2023-02-01T11:20:42;10.97;;;5.93;;
12120;SDS011;6124;59.460;17.908;2023-02-01T11:23:13;36.90;;;20.20;;
12120;SDS011;6124;59.460;17.908;2023-02-01T11:25:47;26.67;;;15.97;;
12120;SDS011;6124;59.460;17.908;2023-02-01T11:28:16;20.77;;;12.87;;
12120;SDS011;6124;59.460;17.908;2023-02-01T11:30:45;16.83;;;8.53;;
12120;SDS011;6124;59.460;17.908;2023-02-01T11:33:15;11.87;;;4.00;;
12120;SDS011;6124;59.460;17.908;2023-02-01T11:35:43;9.63;;;6.30;;
12120;SDS011;6124;59.460;17.908;2023-02-01T11:38:11;8.53;;;5.00;;
12120;SDS011;6124;59.460;17.908;2023-02-01T11:40:39;11.67;;;5.70;;
12120;SDS011;6124;59.460;17.908;2023-02-01T11:43:08;16.07;;;7.33;;
12120;SDS011;6124;59.460;17.908;2023-02-01T11:45:36;17.10;;;7.30;;
12120;SDS011;6124;59.460;17.908;2023-02-01T11:48:07;8.00;;;4.00;;
12120;SDS011;6124;59.460;17.908;2023-02-01T11:50:37;10.33;;;5.20;;
12120;SDS011;6124;59.460;17.908;2023-02-01T11:53:20;7.20;;;4.40;;
12120;SDS011;6124;59.460;17.908;2023-02-01T11:55:52;8.67;;;3.80;;
12120;SDS011;6124;59.460;17.908;2023-02-01T11:58:34;7.87;;;3.97;;
12120;SDS011;6124;59.460;17.908;2023-02-01T12:01:21;10.77;;;4.40;;
12120;SDS011;6124;59.460;17.908;2023-02-01T12:04:03;11.40;;;3.50;;
12120;SDS011;6124;59.460;17.908;2023-02-01T12:06:35;6.00;;;3.00;;
12120;SDS011;6124;59.460;17.908;2023-02-01T12:09:07;6.47;;;3.07;;
12120;SDS011;6124;59.460;17.908;2023-02-01T12:11:40;8.87;;;2.50;;
12120;SDS011;6124;59.460;17.908;2023-02-01T12:14:14;8.47;;;3.43;;
12120;SDS011;6124;59.460;17.908;2023-02-01T12:16:48;7.30;;;2.90;;
12120;SDS011;6124;59.460;17.908;2023-02-01T12:19:28;9.90;;;3.00;;
12120;SDS011;6124;59.460;17.908;2023-02-01T12:22:08;5.83;;;2.83;;
12120;SDS011;6124;59.460;17.908;2023-02-01T12:24:49;6.30;;;2.43;;
12120;SDS011;6124;59.460;17.908;2023-02-01T12:27:32;7.90;;;2.37;;
12120;SDS011;6124;59.460;17.908;2023-02-01T12:30:10;5.27;;;2.07;;
12120;SDS011;6124;59.460;17.908;2023-02-01T12:32:48;6.23;;;2.10;;
12120;SDS011;6124;59.460;17.908;2023-02-01T12:35:34;6.20;;;2.23;;
12120;SDS011;6124;59.460;17.908;2023-02-01T12:38:10;3.40;;;2.10;;
12120;SDS011;6124;59.460;17.908;2023-02-01T12:40:44;5.67;;;2.30;;
12120;SDS011;6124;59.460;17.908;2023-02-01T12:43:15;5.47;;;2.37;;
12120;SDS011;6124;59.460;17.908;2023-02-01T12:45:48;6.87;;;1.93;;
12120;SDS011;6124;59.460;17.908;2023-02-01T12:48:21;6.03;;;2.10;;
12120;SDS011;6124;59.460;17.908;2023-02-01T12:50:50;6.20;;;2.33;;
12120;SDS011;6124;59.460;17.908;2023-02-01T12:53:21;5.67;;;2.00;;
12120;SDS011;6124;59.460;17.908;2023-02-01T12:55:50;6.13;;;2.43;;
12120;SDS011;6124;59.460;17.908;2023-02-01T12:58:20;5.43;;;2.13;;
12120;SDS011;6124;59.460;17.908;2023-02-01T13:00:50;5.97;;;2.20;;
12120;SDS011;6124;59.460;17.908;2023-02-01T13:03:23;5.23;;;2.20;;
12120;SDS011;6124;59.460;17.908;2023-02-01T13:05:54;5.57;;;2.80;;
12120;SDS011;6124;59.460;17.908;2023-02-01T13:08:24;6.73;;;2.10;;
12120;SDS011;6124;59.460;17.908;2023-02-01T13:10:53;7.60;;;2.17;;
12120;SDS011;6124;59.460;17.908;2023-02-01T13:13:25;4.50;;;2.20;;
12120;SDS011;6124;59.460;17.908;2023-02-01T13:15:56;4.80;;;2.00;;
12120;SDS011;6124;59.460;17.908;2023-02-01T13:18:26;4.50;;;1.73;;
12120;SDS011;6124;59.460;17.908;2023-02-01T13:21:02;6.33;;;1.90;;
12120;SDS011;6124;59.460;17.908;2023-02-01T13:23:31;4.40;;;2.13;;
12120;SDS011;6124;59.460;17.908;2023-02-01T13:26:00;3.67;;;1.70;;
12120;SDS011;6124;59.460;17.908;2023-02-01T13:28:28;5.37;;;2.00;;
12120;SDS011;6124;59.460;17.908;2023-02-01T13:31:00;5.23;;;1.93;;
12120;SDS011;6124;59.460;17.908;2023-02-01T13:33:37;7.33;;;1.90;;
12120;SDS011;6124;59.460;17.908;2023-02-01T13:36:16;5.90;;;1.83;;
12120;SDS011;6124;59.460;17.908;2023-02-01T13:38:52;7.27;;;2.43;;
12120;SDS011;6124;59.460;17.908;2023-02-01T13:41:24;6.90;;;1.53;;
12120;SDS011;6124;59.460;17.908;2023-02-01T13:43:54;4.93;;;1.40;;
12120;SDS011;6124;59.460;17.908;2023-02-01T13:46:23;6.43;;;1.93;;
12120;SDS011;6124;59.460;17.908;2023-02-01T13:48:52;6.20;;;1.97;;
12120;SDS011;6124;59.460;17.908;2023-02-01T13:51:29;5.30;;;1.40;;
12120;SDS011;6124;59.460;17.908;2023-02-01T13:53:59;5.87;;;1.63;;
12120;SDS011;6124;59.460;17.908;2023-02-01T13:56:27;5.83;;;1.70;;
12120;SDS011;6124;59.460;17.908;2023-02-01T13:58:54;5.30;;;1.70;;
12120;SDS011;6124;59.460;17.908;2023-02-01T14:06:54;3.50;;;1.50;;
12120;SDS011;6124;59.460;17.908;2023-02-01T14:09:32;2.73;;;1.17;;
12120;SDS011;6124;59.460;17.908;2023-02-01T14:14:48;4.03;;;1.20;;
12120;SDS011;6124;59.460;17.908;2023-02-01T14:22:51;4.67;;;1.20;;
12120;SDS011;6124;59.460;17.908;2023-02-01T14:25:31;5.20;;;1.40;;
12120;SDS011;6124;59.460;17.908;2023-02-01T14:27:59;4.07;;;1.10;;
12120;SDS011;6124;59.460;17.908;2023-02-01T14:30:26;3.37;;;1.20;;
12120;SDS011;6124;59.460;17.908;2023-02-01T14:32:53;5.93;;;1.03;;
12120;SDS011;6124;59.460;17.908;2023-02-01T14:35:21;3.07;;;1.10;;
12120;SDS011;6124;59.460;17.908;2023-02-01T14:37:53;3.67;;;1.10;;
12120;SDS011;6124;59.460;17.908;2023-02-01T14:40:23;4.27;;;1.30;;
12120;SDS011;6124;59.460;17.908;2023-02-01T14:42:51;5.20;;;1.27;;
12120;SDS011;6124;59.460;17.908;2023-02-01T14:50:55;4.10;;;1.33;;
12120;SDS011;6124;59.460;17.908;2023-02-01T14:53:27;2.50;;;1.20;;
12120;SDS011;6124;59.460;17.908;2023-02-01T14:55:58;2.60;;;1.27;;
12120;SDS011;6124;59.460;17.908;2023-02-01T14:58:32;2.37;;;1.03;;
12120;SDS011;6124;59.460;17.908;2023-02-01T15:01:03;3.87;;;1.30;;
12120;SDS011;6124;59.460;17.908;2023-02-01T15:03:43;3.27;;;1.53;;
12120;SDS011;6124;59.460;17.908;2023-02-01T15:06:20;6.20;;;1.73;;
12120;SDS011;6124;59.460;17.908;2023-02-01T15:08:51;4.10;;;1.60;;
12120;SDS011;6124;59.460;17.908;2023-02-01T15:11:19;6.53;;;1.43;;
12120;SDS011;6124;59.460;17.908;2023-02-01T15:13:50;3.50;;;1.20;;
12120;SDS011;6124;59.460;17.908;2023-02-01T15:16:19;3.47;;;1.47;;
12120;SDS011;6124;59.460;17.908;2023-02-01T15:18:47;4.83;;;1.20;;
12120;SDS011;6124;59.460;17.908;2023-02-01T15:21:16;2.73;;;1.43;;
12120;SDS011;6124;59.460;17.908;2023-02-01T15:23:44;5.07;;;1.50;;
12120;SDS011;6124;59.460;17.908;2023-02-01T15:26:25;2.57;;;1.20;;
12120;SDS011;6124;59.460;17.908;2023-02-01T15:28:53;4.53;;;1.20;;
12120;SDS011;6124;59.460;17.908;2023-02-01T15:31:31;3.93;;;1.50;;